createdAt,value
2023-03-16T00:02:14.845Z,4.46
2023-03-16T00:04:41.308Z,4.47
2023-03-16T00:07:10.509Z,4.46
2023-03-16T00:09:41.251Z,4.48
2023-03-16T00:12:15.639Z,4.48
2023-03-16T00:14:44.255Z,4.49
2023-03-16T00:17:18.838Z,4.49
2023-03-16T00:19:55.182Z,4.51
2023-03-16T00:22:23.691Z,4.51
2023-03-16T00:24:50.271Z,4.49
2023-03-16T00:27:17.343Z,4.51
2023-03-16T00:29:48.267Z,4.51
2023-03-16T00:32:20.738Z,4.51
2023-03-16T00:34:47.722Z,4.51
2023-03-16T00:37:16.742Z,4.52
2023-03-16T00:39:43.656Z,4.52
2023-03-16T00:42:11.022Z,4.50
2023-03-16T00:44:37.937Z,4.49
2023-03-16T00:47:06.405Z,4.49
2023-03-16T00:49:34.847Z,4.51
2023-03-16T00:52:02.502Z,4.49
2023-03-16T00:54:29.712Z,4.49
2023-03-16T00:56:56.122Z,4.50
2023-03-16T00:59:22.503Z,4.50
2023-03-16T01:01:48.929Z,4.51
2023-03-16T01:04:15.376Z,4.50
2023-03-16T01:06:41.902Z,4.51
2023-03-16T01:09:09.595Z,4.51
2023-03-16T01:11:36.401Z,4.52
2023-03-16T01:14:03.717Z,4.51
2023-03-16T01:16:33.742Z,4.52
2023-03-16T01:19:01.327Z,4.50
2023-03-16T01:21:28.484Z,4.51
2023-03-16T01:23:54.929Z,4.51
2023-03-16T01:26:22.966Z,4.50
2023-03-16T01:28:49.504Z,4.49
2023-03-16T01:31:16.056Z,4.50
2023-03-16T01:33:43.594Z,4.49
2023-03-16T01:36:20.310Z,4.50
2023-03-16T01:38:47.239Z,4.51
2023-03-16T01:41:14.438Z,4.50
2023-03-16T01:43:42.071Z,4.49
2023-03-16T01:46:19.627Z,4.49
2023-03-16T01:48:54.991Z,4.49
2023-03-16T01:51:27.056Z,4.49
2023-03-16T01:53:59.186Z,4.49
2023-03-16T01:56:34.549Z,4.48
2023-03-16T01:59:05.192Z,4.48
2023-03-16T02:01:32.043Z,4.47
2023-03-16T02:04:07.942Z,4.48
2023-03-16T02:06:35.584Z,4.47
2023-03-16T02:09:02.672Z,4.47
2023-03-16T02:11:30.018Z,4.47
2023-03-16T02:14:02.586Z,4.47
2023-03-16T02:16:29.019Z,4.47
2023-03-16T02:18:55.577Z,4.48
2023-03-16T02:21:54.672Z,4.49
2023-03-16T02:24:21.668Z,4.50
2023-03-16T02:27:01.902Z,4.51
2023-03-16T02:29:53.230Z,4.51
2023-03-16T02:32:22.825Z,4.52
2023-03-16T02:34:49.379Z,4.54
2023-03-16T02:37:15.973Z,4.55
2023-03-16T02:39:45.275Z,4.54
2023-03-16T02:42:21.943Z,4.55
2023-03-16T02:44:57.851Z,4.56
2023-03-16T02:47:34.637Z,4.56
2023-03-16T02:50:04.856Z,4.56
2023-03-16T02:52:31.440Z,4.55
2023-03-16T02:54:57.860Z,4.54
2023-03-16T02:57:24.273Z,4.54
2023-03-16T02:59:51.963Z,4.54
2023-03-16T03:02:18.492Z,4.53
2023-03-16T03:04:46.328Z,4.53
2023-03-16T03:07:14.356Z,4.53
2023-03-16T03:09:44.430Z,4.53
2023-03-16T03:12:11.537Z,4.53
2023-03-16T03:14:38.121Z,4.52
2023-03-16T03:17:07.298Z,4.50
2023-03-16T03:19:34.677Z,4.51
2023-03-16T03:22:04.349Z,4.49
2023-03-16T03:24:31.740Z,4.51
2023-03-16T03:27:00.684Z,4.49
2023-03-16T03:29:34.597Z,4.49
2023-03-16T03:32:02.066Z,4.48
2023-03-16T03:34:29.307Z,4.48
2023-03-16T03:36:55.941Z,4.48
2023-03-16T03:39:22.367Z,4.46
2023-03-16T03:41:48.767Z,4.46
2023-03-16T03:44:15.332Z,4.45
2023-03-16T03:46:41.967Z,4.44
2023-03-16T03:49:08.497Z,4.43
2023-03-16T03:51:35.253Z,4.42
2023-03-16T03:54:01.717Z,4.41
2023-03-16T03:56:28.147Z,4.41
2023-03-16T03:58:54.628Z,4.38
2023-03-16T04:01:21.650Z,4.39
2023-03-16T04:03:48.846Z,4.38
2023-03-16T04:06:15.394Z,4.37
2023-03-16T04:08:42.265Z,4.34
2023-03-16T04:11:08.788Z,4.33
2023-03-16T04:13:35.326Z,4.32
2023-03-16T04:16:04.632Z,4.29
2023-03-16T04:18:38.604Z,4.28
2023-03-16T04:21:06.522Z,4.27
2023-03-16T04:23:33.774Z,4.24
2023-03-16T04:26:01.440Z,4.24
2023-03-16T04:28:27.914Z,4.22
2023-03-16T04:30:57.261Z,4.21
2023-03-16T04:33:23.762Z,4.21
2023-03-16T04:35:50.290Z,4.19
2023-03-16T04:38:16.786Z,4.18
2023-03-16T04:40:43.242Z,4.17
2023-03-16T04:43:09.666Z,4.18
2023-03-16T04:45:36.221Z,4.19
2023-03-16T04:48:03.263Z,4.19
2023-03-16T04:50:29.959Z,4.19
2023-03-16T04:52:56.537Z,4.21
2023-03-16T04:55:23.307Z,4.21
2023-03-16T04:57:50.434Z,4.22
2023-03-16T05:00:19.165Z,4.23
2023-03-16T05:02:50.053Z,4.23
2023-03-16T05:05:16.731Z,4.24
2023-03-16T05:07:43.677Z,4.25
2023-03-16T05:10:18.794Z,4.25
2023-03-16T05:12:45.813Z,4.26
2023-03-16T05:15:12.446Z,4.27
2023-03-16T05:17:39.037Z,4.27
2023-03-16T05:20:09.136Z,4.28
2023-03-16T05:22:35.846Z,4.29
2023-03-16T05:25:04.660Z,4.30
2023-03-16T05:27:31.280Z,4.29
2023-03-16T05:29:57.695Z,4.31
2023-03-16T05:32:24.416Z,4.31
2023-03-16T05:34:53.161Z,4.31
2023-03-16T05:37:19.610Z,4.32
2023-03-16T05:39:46.048Z,4.31
2023-03-16T05:42:12.450Z,4.31
2023-03-16T05:44:39.416Z,4.32
2023-03-16T05:47:06.030Z,4.32
2023-03-16T05:49:32.561Z,4.33
2023-03-16T05:51:59.033Z,4.32
2023-03-16T05:54:25.470Z,4.32
2023-03-16T05:56:52.354Z,4.33
2023-03-16T05:59:18.774Z,4.32
2023-03-16T06:01:45.226Z,4.30
2023-03-16T06:04:11.825Z,4.33
2023-03-16T06:06:38.374Z,4.32
2023-03-16T06:09:04.856Z,4.32
2023-03-16T06:11:32.938Z,4.33
2023-03-16T06:14:01.184Z,4.34
2023-03-16T06:16:27.831Z,4.34
2023-03-16T06:18:58.529Z,4.36
2023-03-16T06:21:26.155Z,4.36
2023-03-16T06:23:52.666Z,4.36
2023-03-16T06:26:19.123Z,4.38
2023-03-16T06:28:45.596Z,4.40
2023-03-16T06:31:12.214Z,4.41
2023-03-16T06:33:38.851Z,4.41
2023-03-16T06:36:05.551Z,4.45
2023-03-16T06:38:32.116Z,4.46
2023-03-16T06:40:58.559Z,4.49
2023-03-16T06:43:25.005Z,4.52
2023-03-16T06:45:52.336Z,4.55
2023-03-16T06:48:18.806Z,4.57
2023-03-16T06:50:46.631Z,4.58
2023-03-16T06:53:13.169Z,4.59
2023-03-16T06:55:39.683Z,4.61
2023-03-16T06:58:06.136Z,4.64
2023-03-16T07:00:34.162Z,4.69
2023-03-16T07:03:01.979Z,4.75
2023-03-16T07:05:28.447Z,4.79
2023-03-16T07:07:54.896Z,4.83
2023-03-16T07:10:21.871Z,4.87
2023-03-16T07:12:48.510Z,4.89
2023-03-16T07:15:15.002Z,4.90
2023-03-16T07:17:42.717Z,4.91
2023-03-16T07:20:12.242Z,4.92
2023-03-16T07:22:39.672Z,4.92
2023-03-16T07:25:07.154Z,4.94
2023-03-16T07:27:33.674Z,4.94
2023-03-16T07:30:00.439Z,4.97
2023-03-16T07:32:30.069Z,4.97
2023-03-16T07:34:59.171Z,4.99
2023-03-16T07:37:26.680Z,4.99
2023-03-16T07:39:53.253Z,4.97
2023-03-16T07:42:19.920Z,4.96
2023-03-16T07:44:46.407Z,4.95
2023-03-16T07:47:13.619Z,4.95
2023-03-16T07:49:41.653Z,4.95
2023-03-16T07:52:08.419Z,4.95
2023-03-16T07:54:34.953Z,4.95
2023-03-16T07:57:01.462Z,4.98
2023-03-16T07:59:27.868Z,4.99
2023-03-16T08:01:54.348Z,5.01
2023-03-16T08:04:22.284Z,5.03
2023-03-16T08:06:48.974Z,5.05
2023-03-16T08:09:15.472Z,5.11
2023-03-16T08:11:41.873Z,5.17
2023-03-16T08:14:08.702Z,5.25
2023-03-16T08:16:36.917Z,5.35
2023-03-16T08:19:03.909Z,5.45
2023-03-16T08:21:30.357Z,5.56
2023-03-16T08:23:56.790Z,5.66
2023-03-16T08:26:24.357Z,5.74
2023-03-16T08:28:52.178Z,5.80
2023-03-16T08:31:20.618Z,5.82
2023-03-16T08:33:48.003Z,5.82
2023-03-16T08:36:17.616Z,5.84
2023-03-16T08:39:03.839Z,5.84
2023-03-16T08:41:32.998Z,5.86
2023-03-16T08:44:00.003Z,5.90
2023-03-16T08:46:27.059Z,5.94
2023-03-16T08:48:55.797Z,5.96
2023-03-16T08:51:22.249Z,5.97
2023-03-16T08:53:48.691Z,6.01
2023-03-16T08:56:15.135Z,6.03
2023-03-16T08:58:46.018Z,6.07
2023-03-16T09:01:14.740Z,6.10
2023-03-16T09:03:42.318Z,6.13
2023-03-16T09:06:10.261Z,6.20
2023-03-16T09:08:39.124Z,6.24
2023-03-16T09:11:08.486Z,6.30
2023-03-16T09:13:36.170Z,6.34
2023-03-16T09:16:03.119Z,6.35
2023-03-16T09:18:29.884Z,6.38
2023-03-16T09:21:01.413Z,6.40
2023-03-16T09:23:30.505Z,6.38
2023-03-16T09:25:59.564Z,6.37
2023-03-16T09:28:30.842Z,6.38
2023-03-16T09:31:00.266Z,6.38
2023-03-16T09:33:28.766Z,6.40
2023-03-16T09:35:57.489Z,6.41
2023-03-16T09:38:26.410Z,6.40
2023-03-16T09:41:11.086Z,6.43
2023-03-16T09:43:59.379Z,6.45
2023-03-16T09:46:29.811Z,6.48
2023-03-16T09:48:57.969Z,6.53
2023-03-16T09:51:53.980Z,6.58
2023-03-16T09:54:29.620Z,6.70
2023-03-16T09:56:57.571Z,6.80
2023-03-16T09:59:25.376Z,6.90
2023-03-16T10:02:16.405Z,6.98
2023-03-16T10:05:00.781Z,7.12
2023-03-16T10:07:52.696Z,7.29
2023-03-16T10:10:34.420Z,7.40
2023-03-16T10:13:05.388Z,7.52
2023-03-16T10:15:37.767Z,7.74
2023-03-16T10:18:32.275Z,7.93
2023-03-16T10:21:00.025Z,8.07
2023-03-16T10:23:26.592Z,8.25
2023-03-16T10:25:57.121Z,8.38
2023-03-16T10:28:28.765Z,8.48
2023-03-16T10:30:58.581Z,8.55
2023-03-16T10:33:30.178Z,8.63
2023-03-16T10:36:19.737Z,8.72
2023-03-16T10:38:51.892Z,8.83
2023-03-16T10:41:18.356Z,8.89
2023-03-16T10:43:53.171Z,8.93
2023-03-16T10:46:19.827Z,9.05
2023-03-16T10:48:54.923Z,9.19
2023-03-16T10:51:26.089Z,9.25
2023-03-16T10:53:53.255Z,9.31
2023-03-16T10:56:23.533Z,9.37
2023-03-16T10:58:50.155Z,9.39
2023-03-16T11:01:20.843Z,9.41
2023-03-16T11:03:54.014Z,9.43
2023-03-16T11:06:33.437Z,9.47
2023-03-16T11:09:14.275Z,9.54
2023-03-16T11:11:51.098Z,9.56
2023-03-16T11:14:22.358Z,9.56
2023-03-16T11:17:12.541Z,9.59
2023-03-16T11:19:57.710Z,9.66
2023-03-16T11:22:25.763Z,9.62
2023-03-16T11:25:07.245Z,9.63
2023-03-16T11:28:00.666Z,9.62
2023-03-16T11:30:31.030Z,9.66
2023-03-16T11:33:00.549Z,9.68
2023-03-16T11:35:38.538Z,9.70
2023-03-16T11:38:41.250Z,9.74
2023-03-16T11:41:18.808Z,9.80
2023-03-16T11:44:08.642Z,9.80
2023-03-16T11:46:38.091Z,9.84
2023-03-16T11:49:39.979Z,9.88
2023-03-16T11:52:33.087Z,9.99
2023-03-16T11:55:14.451Z,10.11
2023-03-16T11:57:43.608Z,10.20
2023-03-16T12:00:52.775Z,10.31
2023-03-16T12:04:01.929Z,10.41
2023-03-16T12:06:34.629Z,10.54
2023-03-16T12:09:19.901Z,10.66
2023-03-16T12:12:00.050Z,10.81
2023-03-16T12:14:46.971Z,10.87
2023-03-16T12:17:19.480Z,10.94
2023-03-16T12:20:19.746Z,11.04
2023-03-16T12:23:00.993Z,11.23
2023-03-16T12:25:32.847Z,11.42
2023-03-16T12:28:05.422Z,11.50
2023-03-16T12:31:04.174Z,11.57
2023-03-16T12:33:45.644Z,11.68
2023-03-16T12:36:38.854Z,11.88
2023-03-16T12:39:18.670Z,12.00
2023-03-16T12:42:21.388Z,12.13
2023-03-16T12:44:51.969Z,12.19
2023-03-16T12:47:33.871Z,12.19
2023-03-16T12:50:06.144Z,12.19
2023-03-16T12:52:44.603Z,12.26
2023-03-16T12:55:17.501Z,12.31
2023-03-16T12:57:46.024Z,12.36
2023-03-16T13:00:14.484Z,12.40
2023-03-16T13:02:55.658Z,12.46
2023-03-16T13:05:34.746Z,12.58
2023-03-16T13:08:22.878Z,12.57
2023-03-16T13:11:07.740Z,12.61
2023-03-16T13:13:34.286Z,12.62
2023-03-16T13:16:10.956Z,12.62
2023-03-16T13:18:45.183Z,12.69
2023-03-16T13:21:21.447Z,12.66
2023-03-16T13:24:01.367Z,12.68
2023-03-16T13:26:31.561Z,12.81
2023-03-16T13:28:58.782Z,12.83
2023-03-16T13:31:34.553Z,12.94
2023-03-16T13:34:01.200Z,13.04
2023-03-16T13:36:30.043Z,13.15
2023-03-16T13:39:07.604Z,13.20
2023-03-16T13:41:34.379Z,13.23
2023-03-16T13:44:00.832Z,13.17
2023-03-16T13:46:29.473Z,13.19
2023-03-16T13:49:00.783Z,13.23
2023-03-16T13:51:30.956Z,13.32
2023-03-16T13:53:57.538Z,13.42
2023-03-16T13:56:28.875Z,13.48
2023-03-16T13:58:57.860Z,13.58
2023-03-16T14:01:27.924Z,13.60
2023-03-16T14:03:58.275Z,13.62
2023-03-16T14:06:30.550Z,13.67
2023-03-16T14:09:04.533Z,13.70
2023-03-16T14:11:31.448Z,13.75
2023-03-16T14:14:00.469Z,13.81
2023-03-16T14:16:29.778Z,13.88
2023-03-16T14:19:14.576Z,13.90
2023-03-16T14:21:48.902Z,13.83
2023-03-16T14:24:38.414Z,13.87
2023-03-16T14:27:20.650Z,13.88
2023-03-16T14:29:54.217Z,13.97
2023-03-16T14:32:32.685Z,13.94
2023-03-16T14:35:18.314Z,13.91
2023-03-16T14:37:45.043Z,13.91
2023-03-16T14:40:30.790Z,13.93
2023-03-16T14:43:02.605Z,13.93
2023-03-16T14:45:36.571Z,13.95
2023-03-16T14:48:16.947Z,13.98
2023-03-16T14:50:44.335Z,13.97
2023-03-16T14:53:11.236Z,14.01
2023-03-16T14:55:37.908Z,14.05
2023-03-16T14:58:04.652Z,13.99
2023-03-16T15:00:37.083Z,13.95
2023-03-16T15:03:11.676Z,13.94
2023-03-16T15:05:43.324Z,13.98
2023-03-16T15:08:15.824Z,13.88
2023-03-16T15:10:44.144Z,13.76
2023-03-16T15:13:52.766Z,13.61
2023-03-16T15:16:21.991Z,13.53
2023-03-16T15:18:49.008Z,13.48
2023-03-16T15:21:25.111Z,13.47
2023-03-16T15:23:52.150Z,13.49
2023-03-16T15:26:25.236Z,13.47
2023-03-16T15:28:51.834Z,13.50
2023-03-16T15:31:18.343Z,13.55
2023-03-16T15:33:45.540Z,13.64
2023-03-16T15:36:17.331Z,13.74
2023-03-16T15:38:47.284Z,13.82
2023-03-16T15:41:14.424Z,13.82
2023-03-16T15:43:40.995Z,13.78
2023-03-16T15:46:07.484Z,13.73
2023-03-16T15:48:34.008Z,13.67
2023-03-16T15:51:04.583Z,13.65
2023-03-16T15:53:41.385Z,13.63
2023-03-16T15:56:12.017Z,13.65
2023-03-16T15:58:41.921Z,13.70
2023-03-16T16:01:09.714Z,13.76
2023-03-16T16:03:36.263Z,13.82
2023-03-16T16:06:02.785Z,13.91
2023-03-16T16:08:29.399Z,13.96
2023-03-16T16:10:56.426Z,13.98
2023-03-16T16:13:37.585Z,13.98
2023-03-16T16:16:13.340Z,13.93
2023-03-16T16:18:43.505Z,13.91
2023-03-16T16:21:16.991Z,13.86
2023-03-16T16:23:43.742Z,13.81
2023-03-16T16:26:45.479Z,13.77
2023-03-16T16:29:19.852Z,13.67
2023-03-16T16:31:46.649Z,13.60
2023-03-16T16:34:15.494Z,13.53
2023-03-16T16:36:42.028Z,13.49
2023-03-16T16:39:09.571Z,13.47
2023-03-16T16:41:37.295Z,13.45
2023-03-16T16:44:08.302Z,13.41
2023-03-16T16:46:41.401Z,13.38
2023-03-16T16:49:15.290Z,13.37
2023-03-16T16:51:42.642Z,13.32
2023-03-16T16:54:16.594Z,13.27
2023-03-16T16:56:44.284Z,13.21
2023-03-16T16:59:18.228Z,13.12
2023-03-16T17:01:46.848Z,13.04
2023-03-16T17:04:23.458Z,12.98
2023-03-16T17:06:55.210Z,12.91
2023-03-16T17:09:23.323Z,12.83
2023-03-16T17:11:51.139Z,12.75
2023-03-16T17:14:20.214Z,12.66
2023-03-16T17:16:48.459Z,12.59
2023-03-16T17:19:27.099Z,12.49
2023-03-16T17:21:56.790Z,12.39
2023-03-16T17:24:23.432Z,12.31
2023-03-16T17:26:56.961Z,12.24
2023-03-16T17:29:33.478Z,12.15
2023-03-16T17:32:16.273Z,12.08
2023-03-16T17:34:42.737Z,12.00
2023-03-16T17:37:19.071Z,11.92
2023-03-16T17:39:45.818Z,11.86
2023-03-16T17:42:19.928Z,11.78
2023-03-16T17:44:47.923Z,11.70
2023-03-16T17:47:26.633Z,11.64
2023-03-16T17:49:54.093Z,11.57
2023-03-16T17:52:26.160Z,11.49
2023-03-16T17:54:53.866Z,11.44
2023-03-16T17:57:27.759Z,11.39
2023-03-16T17:59:54.969Z,11.35
2023-03-16T18:02:24.392Z,11.29
2023-03-16T18:04:50.946Z,11.24
2023-03-16T18:07:17.836Z,11.20
2023-03-16T18:09:44.666Z,11.16
2023-03-16T18:12:11.175Z,11.11
2023-03-16T18:14:39.716Z,11.07
2023-03-16T18:17:22.694Z,11.02
2023-03-16T18:19:49.709Z,11.00
2023-03-16T18:22:20.643Z,10.97
2023-03-16T18:24:48.559Z,10.92
2023-03-16T18:27:15.114Z,10.88
2023-03-16T18:29:48.147Z,10.82
2023-03-16T18:32:22.883Z,10.79
2023-03-16T18:34:54.706Z,10.76
2023-03-16T18:37:28.063Z,10.72
2023-03-16T18:39:55.029Z,10.70
2023-03-16T18:42:23.824Z,10.67
2023-03-16T18:44:51.129Z,10.64
2023-03-16T18:47:24.240Z,10.60
2023-03-16T18:49:54.075Z,10.58
2023-03-16T18:52:30.599Z,10.54
2023-03-16T18:54:58.186Z,10.49
2023-03-16T18:57:28.659Z,10.44
2023-03-16T18:59:55.421Z,10.40
2023-03-16T19:02:42.087Z,10.36
2023-03-16T19:05:15.454Z,10.34
2023-03-16T19:07:44.370Z,10.30
2023-03-16T19:10:19.896Z,10.26
2023-03-16T19:12:46.550Z,10.22
2023-03-16T19:15:35.536Z,10.23
2023-03-16T19:18:02.116Z,10.20
2023-03-16T19:20:31.867Z,10.14
2023-03-16T19:23:14.685Z,10.12
2023-03-16T19:25:42.512Z,10.06
2023-03-16T19:28:29.819Z,10.02
2023-03-16T19:30:57.235Z,9.98
2023-03-16T19:33:26.290Z,9.94
2023-03-16T19:35:54.631Z,9.89
2023-03-16T19:38:25.683Z,9.87
2023-03-16T19:40:58.038Z,9.84
2023-03-16T19:43:25.901Z,9.82
2023-03-16T19:45:52.661Z,9.80
2023-03-16T19:48:24.270Z,9.79
2023-03-16T19:50:51.314Z,9.76
2023-03-16T19:53:23.096Z,9.74
2023-03-16T19:55:52.200Z,9.71
2023-03-16T19:58:35.898Z,9.68
2023-03-16T20:01:02.958Z,9.66
2023-03-16T20:03:33.172Z,9.66
2023-03-16T20:05:59.634Z,9.61
2023-03-16T20:08:28.844Z,9.59
2023-03-16T20:11:02.111Z,9.55
2023-03-16T20:13:30.721Z,9.53
2023-03-16T20:15:57.294Z,9.51
2023-03-16T20:18:23.852Z,9.48
2023-03-16T20:20:50.764Z,9.45
2023-03-16T20:23:23.017Z,9.43
2023-03-16T20:25:52.090Z,9.42
2023-03-16T20:28:21.463Z,9.38
2023-03-16T20:30:49.572Z,9.34
2023-03-16T20:33:22.767Z,9.32
2023-03-16T20:35:53.345Z,9.30
2023-03-16T20:38:20.074Z,9.27
2023-03-16T20:40:50.256Z,9.23
2023-03-16T20:43:30.880Z,9.24
2023-03-16T20:46:01.110Z,9.24
2023-03-16T20:48:28.251Z,9.19
2023-03-16T20:50:56.167Z,9.17
2023-03-16T20:53:23.488Z,9.15
2023-03-16T20:55:51.471Z,9.15
2023-03-16T20:58:31.405Z,9.11
2023-03-16T21:00:58.073Z,9.09
2023-03-16T21:03:29.914Z,9.08
2023-03-16T21:05:59.903Z,9.07
2023-03-16T21:08:27.220Z,9.06
2023-03-16T21:10:56.288Z,9.06
2023-03-16T21:13:33.611Z,9.06
2023-03-16T21:16:02.335Z,9.02
2023-03-16T21:18:30.439Z,8.99
2023-03-16T21:20:58.258Z,8.98
2023-03-16T21:23:24.896Z,8.94
2023-03-16T21:25:54.828Z,8.92
2023-03-16T21:28:24.147Z,8.88
2023-03-16T21:30:53.707Z,8.86
2023-03-16T21:33:37.795Z,8.85
2023-03-16T21:36:10.039Z,8.83
2023-03-16T21:38:36.744Z,8.84
2023-03-16T21:41:03.635Z,8.82
2023-03-16T21:43:31.155Z,8.80
2023-03-16T21:45:58.820Z,8.77
2023-03-16T21:48:38.019Z,8.77
2023-03-16T21:51:15.347Z,8.73
2023-03-16T21:53:43.843Z,8.70
2023-03-16T21:56:16.230Z,8.67
2023-03-16T21:58:43.981Z,8.66
2023-03-16T22:01:32.234Z,8.62
2023-03-16T22:04:06.509Z,8.59
2023-03-16T22:06:33.414Z,8.59
2023-03-16T22:09:00.751Z,8.59
2023-03-16T22:11:29.442Z,8.56
2023-03-16T22:13:58.991Z,8.53
2023-03-16T22:16:28.689Z,8.52
2023-03-16T22:18:57.135Z,8.49
2023-03-16T22:21:33.107Z,8.48
2023-03-16T22:24:01.045Z,8.47
2023-03-16T22:26:28.737Z,8.46
2023-03-16T22:28:56.244Z,8.44
2023-03-16T22:31:37.009Z,8.41
2023-03-16T22:34:04.772Z,8.39
2023-03-16T22:36:33.166Z,8.39
2023-03-16T22:39:08.936Z,8.39
2023-03-16T22:41:35.500Z,8.37
2023-03-16T22:44:02.134Z,8.34
2023-03-16T22:46:29.612Z,8.34
2023-03-16T22:48:58.552Z,8.32
2023-03-16T22:51:37.502Z,8.31
2023-03-16T22:54:08.359Z,8.30
2023-03-16T22:56:35.428Z,8.30
2023-03-16T22:59:06.546Z,8.28
2023-03-16T23:01:34.405Z,8.28
2023-03-16T23:04:01.514Z,8.27
2023-03-16T23:06:30.285Z,8.27
2023-03-16T23:08:56.877Z,8.25
2023-03-16T23:11:28.380Z,8.23
2023-03-16T23:13:55.530Z,8.22
2023-03-16T23:16:35.768Z,8.21
2023-03-16T23:19:07.678Z,8.20
2023-03-16T23:21:40.421Z,8.19
2023-03-16T23:24:07.025Z,8.22
2023-03-16T23:26:33.601Z,8.22
2023-03-16T23:29:01.173Z,8.23
2023-03-16T23:31:27.682Z,8.23
2023-03-16T23:33:54.528Z,8.23
2023-03-16T23:36:22.936Z,8.22
2023-03-16T23:38:50.428Z,8.23
2023-03-16T23:41:21.256Z,8.25
2023-03-16T23:43:48.826Z,8.24
2023-03-16T23:46:18.542Z,8.21
2023-03-16T23:48:46.368Z,8.21
2023-03-16T23:51:27.187Z,8.18
2023-03-16T23:53:53.841Z,8.16
2023-03-16T23:56:22.141Z,8.16
2023-03-16T23:58:48.678Z,8.13
